Weather observations for the past three days for
VIGIE/ST LUCIA
Imperial (Metric)
Date Time (ast) Wind (mph) Vis. (mi.) Weather Sky Cond. Temperature (ºF) Relative Humidity Wind Chill (°F) Heat Index (°F) Pressure Precipitation (in)
Air Dwpt 6 hour altimeter (in) sea level (mb) 1 hr 3 hr 6 hr
Max. Min.
09 10:00 E 10 0.00 Mostly Cloudy BKN024 84.2 71.6 66% 90 0 0.0
09 09:00 E 10 0.00 Partly Cloudy SCT024 84.2 73.4 70% 91 0 0.0
09 08:00 E 8 0.00 Partly Cloudy SCT024 82.4 73.4 74% 88 0 0.0
08 20:00 E 7 0.00 A Few Clouds FEW024 80.6 69.8 70% 84 0 0.0
08 19:00 E 10 0.00 Partly Cloudy SCT024 80.6 71.6 74% 85 0 0.0
08 18:00 E 10 0.00 Partly Cloudy SCT023 82.4 71.6 70% 87 0 0.0
08 17:00 E 9 0.00 Mostly Cloudy BKN023 84.2 71.6 66% 90 0 0.0
08 16:00 E 9 0.00 Mostly Cloudy BKN022 87.8 68 52% 91 0 0.0
08 14:00 E 9 0.00 Partly Cloudy SCT020 89.6 69.8 52% 95 0 0.0
08 13:00 E 10 0.00 Mostly Cloudy BKN020 89.6 69.8 52% 95 0 0.0
08 12:00 E 12 0.00 Partly Cloudy SCT024 87.8 69.8 55% 93 0 0.0
08 11:00 E 13 0.00 Mostly Cloudy BKN020 86 69.8 59% 91 0 0.0
08 10:00 E 10 0.00 Mostly Cloudy BKN020 86 69.8 59% 91 0 0.0
08 09:00 E 12 0.00 Partly Cloudy SCT024 82.4 71.6 70% 87 0 0.0
08 08:00 E 7 0.00 Partly Cloudy SCT024 82.4 71.6 70% 87 0 0.0
07 20:00 E 8 0.00 A Few Clouds FEW024 80.6 73.4 79% 85 0 0.0
07 19:00 E 7 0.00 A Few Clouds FEW024 80.6 71.6 74% 85 0 0.0
07 18:00 E 8 0.00 Partly Cloudy SCT024 82.4 71.6 70% 87 0 0.0
07 17:00 NE 9 0.00 A Few Clouds FEW024 86 73.4 66% 93 0 0.0
07 16:00 NE 10 0.00 Partly Cloudy SCT024 86 71.6 62% 92 0 0.0
07 15:00 E 9 0.00 A Few Clouds FEW024 87.8 71.6 59% 94 0 0.0
07 14:00 NE 10 0.00 A Few Clouds FEW024 86 73.4 66% 93 0 0.0
07 13:00 NE 8 0.00 A Few Clouds FEW024 89.6 71.6 55% 96 0 0.0
07 12:00 E 10 0.00 A Few Clouds FEW024 89.6 71.6 55% 96 0 0.0
07 11:00 E 12 0.00 A Few Clouds FEW024 87.8 73.4 62% 96 0 0.0
07 10:00 E 13 0.00 A Few Clouds FEW024 86 71.6 62% 92 0 0.0
07 09:00 E 12 0.00 Partly Cloudy SCT018 SCT024 84.2 75.2 74% 92 0 0.0
07 08:00 NE 9 0.00 Mostly Cloudy BKN018 82.4 75.2 79% 89 0 0.0
06 20:00 E 6 0.00 A Few Clouds FEW022 80.6 73.4 79% 85 0 0.0
06 19:00 E 7 0.00 A Few Clouds FEW022 82.4 73.4 74% 88 0 0.0
06 18:00 E 9 0.00 A Few Clouds FEW024 82.4 73.4 74% 88 0 0.0
06 17:00 E 12 0.00 A Few Clouds FEW024 86 69.8 59% 91 0 0.0
06 16:00 E 13 0.00 A Few Clouds FEW024 87.8 73.4 62% 96 0 0.0
06 15:00 E 9 0.00 Mostly Cloudy BKN022 86 75.2 70% 95 0 0.0
06 14:00 E 13 0.00 Mostly Cloudy BKN022 86 75.2 70% 95 0 0.0
06 13:00 E 12 0.00 Light Showers Rain BKN022 86 77 75% 97 0 0.0
06 12:00 E 10 0.00 Mostly Cloudy BKN023 86 75.2 70% 95 0 0.0
06 11:00 E 8 0.00 Mostly Cloudy BKN026 87.8 75.2 66% 98 0 0.0
Date Time (ast) Wind (mph) Vis. (mi.) Weather Sky Cond. Air Dwpt Max. Min. Relative Humidity Wind Chill (°F) Heat Index (°F) altimeter (in) sea level (mb) 1 hr 3 hr 6 hr
6 hour
Temperature (ºF) Pressure Precipitation (in)